createdAt,value
2023-01-04T00:01:39.379Z,6.26
2023-01-04T00:04:02.187Z,6.28
2023-01-04T00:06:24.894Z,6.32
2023-01-04T00:08:48.581Z,6.39
2023-01-04T00:11:20.240Z,6.33
2023-01-04T00:13:42.870Z,6.44
2023-01-04T00:16:13.795Z,6.40
2023-01-04T00:18:37.069Z,6.42
2023-01-04T00:21:11.815Z,6.40
2023-01-04T00:23:34.475Z,6.47
2023-01-04T00:25:57.038Z,6.39
2023-01-04T00:28:19.786Z,6.32
2023-01-04T00:30:42.454Z,6.28
2023-01-04T00:33:05.350Z,6.13
2023-01-04T00:35:45.244Z,6.01
2023-01-04T00:38:08.735Z,5.95
2023-01-04T00:40:31.486Z,5.92
2023-01-04T00:42:54.206Z,5.85
2023-01-04T00:45:17.277Z,5.79
2023-01-04T00:47:39.872Z,5.83
2023-01-04T00:50:10.390Z,5.68
2023-01-04T00:52:34.347Z,5.64
2023-01-04T00:54:56.922Z,5.70
2023-01-04T00:57:19.527Z,5.61
2023-01-04T00:59:42.643Z,5.75
2023-01-04T01:02:05.436Z,5.77
2023-01-04T01:04:28.401Z,5.73
2023-01-04T01:06:51.762Z,5.70
2023-01-04T01:09:14.858Z,5.68
2023-01-04T01:11:39.088Z,5.73
2023-01-04T01:14:01.734Z,5.57
2023-01-04T01:16:52.900Z,5.51
2023-01-04T01:19:09.530Z,5.37
2023-01-04T01:21:32.905Z,5.26
2023-01-04T01:23:56.245Z,5.15
2023-01-04T01:26:21.054Z,5.11
2023-01-04T01:28:44.891Z,5.09
2023-01-04T01:31:09.466Z,5.16
2023-01-04T01:33:32.171Z,5.18
2023-01-04T01:35:54.757Z,5.16
2023-01-04T01:38:17.387Z,5.08
2023-01-04T01:40:43.764Z,5.11
2023-01-04T01:43:09.241Z,5.08
2023-01-04T01:45:33.940Z,4.96
2023-01-04T01:48:14.836Z,4.96
2023-01-04T01:50:44.449Z,5.00
2023-01-04T01:53:09.158Z,4.88
2023-01-04T01:55:33.640Z,4.88
2023-01-04T01:57:56.810Z,4.87
2023-01-04T02:00:22.056Z,4.88
2023-01-04T02:02:54.924Z,4.82
2023-01-04T02:05:20.462Z,4.74
2023-01-04T02:07:43.995Z,4.75
2023-01-04T02:10:08.030Z,4.82
2023-01-04T02:12:34.541Z,4.91
2023-01-04T02:14:57.406Z,4.89
2023-01-04T02:17:39.058Z,4.91
2023-01-04T02:20:32.432Z,4.91
2023-01-04T02:23:12.998Z,4.82
2023-01-04T02:26:00.571Z,4.85
2023-01-04T02:28:38.098Z,4.81
2023-01-04T02:31:26.195Z,4.71
2023-01-04T02:34:07.242Z,4.57
2023-01-04T02:37:02.271Z,4.49
2023-01-04T02:40:04.274Z,4.41
2023-01-04T02:43:16.096Z,4.39
2023-01-04T02:45:43.270Z,4.39
2023-01-04T02:48:26.141Z,4.40
2023-01-04T02:50:59.867Z,4.50
2023-01-04T02:53:28.517Z,4.37
2023-01-04T02:56:35.558Z,4.39
2023-01-04T02:59:12.315Z,4.33
2023-01-04T03:02:09.104Z,4.43
2023-01-04T03:04:50.260Z,4.36
2023-01-04T03:07:27.914Z,4.37
2023-01-04T03:09:58.598Z,4.39
2023-01-04T03:12:33.738Z,4.34
2023-01-04T03:15:23.987Z,4.36
2023-01-04T03:17:54.685Z,4.29
2023-01-04T03:20:21.144Z,4.26
2023-01-04T03:23:21.528Z,4.23
2023-01-04T03:26:09.244Z,4.17
2023-01-04T03:28:54.283Z,4.26
2023-01-04T03:31:35.714Z,4.19
2023-01-04T03:34:16.922Z,4.09
2023-01-04T03:37:08.825Z,3.92
2023-01-04T03:40:02.566Z,3.91
2023-01-04T03:43:07.287Z,3.86
2023-01-04T03:45:52.377Z,3.64
2023-01-04T03:48:36.340Z,3.63
2023-01-04T03:51:25.509Z,3.60
2023-01-04T03:53:57.587Z,3.53
2023-01-04T03:56:22.694Z,3.46
2023-01-04T03:58:45.829Z,3.41
2023-01-04T04:01:08.773Z,3.40
2023-01-04T04:03:50.608Z,3.47
2023-01-04T04:06:31.586Z,3.31
2023-01-04T04:08:54.218Z,3.27
2023-01-04T04:11:32.743Z,3.27
2023-01-04T04:13:55.394Z,3.27
2023-01-04T04:16:18.256Z,3.31
2023-01-04T04:18:41.012Z,3.38
2023-01-04T04:21:03.796Z,3.33
2023-01-04T04:23:26.457Z,3.34
2023-01-04T04:25:49.108Z,3.33
2023-01-04T04:28:11.816Z,3.28
2023-01-04T04:30:36.166Z,3.24
2023-01-04T04:32:58.876Z,3.26
2023-01-04T04:35:21.528Z,3.10
2023-01-04T04:37:44.124Z,3.22
2023-01-04T04:40:31.240Z,3.15
2023-01-04T04:42:53.900Z,3.06
2023-01-04T04:45:16.478Z,3.06
2023-01-04T04:47:39.007Z,3.10
2023-01-04T04:50:03.456Z,3.10
2023-01-04T04:52:26.274Z,3.05
2023-01-04T04:54:48.841Z,3.02
2023-01-04T04:57:11.434Z,2.93
2023-01-04T04:59:36.307Z,2.89
2023-01-04T05:01:59.083Z,2.79
2023-01-04T05:04:21.821Z,2.84
2023-01-04T05:06:45.004Z,2.71
2023-01-04T05:09:07.603Z,2.82
2023-01-04T05:11:49.050Z,2.98
2023-01-04T05:14:11.597Z,2.81
2023-01-04T05:16:34.326Z,2.72
2023-01-04T05:18:57.067Z,2.69
2023-01-04T05:21:20.440Z,2.78
2023-01-04T05:23:43.274Z,2.77
2023-01-04T05:26:05.999Z,2.78
2023-01-04T05:28:28.674Z,2.81
2023-01-04T05:30:53.650Z,2.81
2023-01-04T05:33:24.283Z,2.77
2023-01-04T05:35:47.022Z,2.68
2023-01-04T05:38:09.768Z,2.74
2023-01-04T05:40:33.191Z,2.86
2023-01-04T05:42:55.967Z,2.92
2023-01-04T05:45:21.101Z,2.84
2023-01-04T05:47:43.916Z,2.75
2023-01-04T05:50:08.050Z,2.69
2023-01-04T05:52:31.507Z,2.69
2023-01-04T05:54:54.181Z,2.71
2023-01-04T05:57:16.918Z,2.71
2023-01-04T05:59:42.185Z,2.85
2023-01-04T06:02:05.469Z,2.96
2023-01-04T06:04:28.207Z,2.99
2023-01-04T06:06:50.788Z,3.00
2023-01-04T06:09:13.729Z,2.98
2023-01-04T06:11:36.351Z,2.93
2023-01-04T06:13:58.901Z,2.88
2023-01-04T06:16:21.508Z,2.86
2023-01-04T06:18:44.152Z,2.86
2023-01-04T06:21:06.789Z,2.88
2023-01-04T06:23:31.541Z,2.88
2023-01-04T06:25:54.178Z,2.86
2023-01-04T06:28:16.919Z,2.86
2023-01-04T06:30:40.013Z,2.92
2023-01-04T06:33:02.752Z,2.91
2023-01-04T06:35:25.380Z,2.91
2023-01-04T06:37:48.256Z,3.06
2023-01-04T06:40:11.945Z,3.12
2023-01-04T06:42:46.823Z,3.16
2023-01-04T06:45:09.840Z,3.17
2023-01-04T06:47:32.681Z,3.15
2023-01-04T06:49:55.821Z,3.19
2023-01-04T06:52:18.769Z,3.23
2023-01-04T06:54:41.463Z,3.20
2023-01-04T06:57:04.121Z,3.09
2023-01-04T06:59:27.256Z,3.16
2023-01-04T07:01:50.834Z,3.15
2023-01-04T07:04:13.631Z,3.26
2023-01-04T07:06:36.996Z,3.24
2023-01-04T07:08:59.934Z,3.28
2023-01-04T07:11:23.014Z,3.33
2023-01-04T07:13:46.154Z,3.40
2023-01-04T07:16:08.819Z,3.44
2023-01-04T07:18:31.650Z,3.31
2023-01-04T07:20:54.653Z,3.38
2023-01-04T07:23:17.540Z,3.38
2023-01-04T07:25:40.210Z,3.48
2023-01-04T07:28:03.346Z,3.58
2023-01-04T07:30:26.787Z,3.75
2023-01-04T07:32:51.890Z,3.78
2023-01-04T07:35:14.563Z,3.91
2023-01-04T07:37:37.301Z,3.95
2023-01-04T07:40:02.618Z,4.02
2023-01-04T07:42:26.682Z,3.89
2023-01-04T07:44:49.304Z,3.64
2023-01-04T07:47:12.119Z,3.43
2023-01-04T07:49:35.045Z,3.20
2023-01-04T07:51:58.751Z,3.15
2023-01-04T07:54:22.167Z,3.10
2023-01-04T07:56:46.409Z,3.20
2023-01-04T07:59:10.295Z,3.12
2023-01-04T08:01:35.761Z,3.15
2023-01-04T08:03:59.073Z,3.17
2023-01-04T08:06:21.955Z,3.10
2023-01-04T08:08:44.616Z,3.13
2023-01-04T08:11:17.289Z,3.19
2023-01-04T08:13:41.527Z,3.33
2023-01-04T08:16:04.740Z,3.37
2023-01-04T08:18:27.485Z,3.31
2023-01-04T08:20:56.552Z,3.34
2023-01-04T08:23:21.325Z,3.28
2023-01-04T08:25:43.975Z,3.36
2023-01-04T08:28:06.871Z,3.57
2023-01-04T08:30:33.261Z,3.51
2023-01-04T08:32:56.113Z,3.63
2023-01-04T08:35:19.005Z,3.75
2023-01-04T08:37:42.151Z,3.92
2023-01-04T08:40:06.128Z,4.03
2023-01-04T08:42:32.204Z,4.01
2023-01-04T08:44:59.127Z,4.20
2023-01-04T08:47:22.334Z,4.32
2023-01-04T08:49:47.954Z,4.47
2023-01-04T08:52:11.872Z,4.41
2023-01-04T08:54:34.728Z,4.54
2023-01-04T08:56:57.418Z,4.65
2023-01-04T08:59:19.920Z,4.74
2023-01-04T09:01:47.043Z,4.93
2023-01-04T09:04:12.414Z,4.98
2023-01-04T09:06:37.246Z,4.96
2023-01-04T09:08:59.953Z,4.87
2023-01-04T09:11:23.454Z,4.87
2023-01-04T09:13:46.872Z,4.85
2023-01-04T09:16:18.769Z,4.85
2023-01-04T09:18:41.706Z,4.91
2023-01-04T09:21:12.674Z,5.16
2023-01-04T09:23:36.880Z,5.27
2023-01-04T09:26:09.278Z,5.15
2023-01-04T09:28:32.591Z,5.23
2023-01-04T09:30:55.592Z,5.26
2023-01-04T09:33:18.296Z,5.16
2023-01-04T09:35:40.947Z,5.48
2023-01-04T09:38:03.691Z,5.48
2023-01-04T09:40:43.268Z,5.68
2023-01-04T09:43:21.158Z,5.90
2023-01-04T09:45:45.934Z,5.78
2023-01-04T09:48:18.888Z,5.70
2023-01-04T09:51:02.641Z,5.94
2023-01-04T09:53:34.232Z,5.98
2023-01-04T09:56:08.387Z,6.06
2023-01-04T09:58:40.325Z,6.28
2023-01-04T10:01:11.191Z,6.44
2023-01-04T10:03:39.530Z,6.66
2023-01-04T10:06:03.471Z,7.11
2023-01-04T10:08:26.661Z,7.20
2023-01-04T10:10:57.598Z,7.45
2023-01-04T10:13:41.313Z,7.70
2023-01-04T10:16:17.306Z,7.76
2023-01-04T10:19:37.036Z,7.64
2023-01-04T10:21:53.989Z,7.59
2023-01-04T10:24:44.645Z,7.49
2023-01-04T10:27:42.691Z,7.45
2023-01-04T10:30:32.044Z,7.37
2023-01-04T10:33:28.179Z,7.74
2023-01-04T10:35:51.106Z,7.98
2023-01-04T10:38:39.575Z,7.99
2023-01-04T10:41:09.874Z,7.69
2023-01-04T10:44:10.647Z,7.67
2023-01-04T10:47:08.714Z,7.91
2023-01-04T10:49:53.997Z,7.98
2023-01-04T10:52:20.655Z,8.05
2023-01-04T10:54:48.000Z,7.66
2023-01-04T10:57:19.788Z,7.45
2023-01-04T11:00:27.051Z,7.32
2023-01-04T11:03:16.143Z,7.23
2023-01-04T11:05:51.294Z,7.26
2023-01-04T11:08:33.581Z,7.23
2023-01-04T11:11:01.211Z,7.08
2023-01-04T11:13:24.638Z,7.04
2023-01-04T11:15:48.012Z,7.09
2023-01-04T11:18:14.051Z,7.29
2023-01-04T11:20:38.583Z,7.32
2023-01-04T11:23:19.570Z,7.40
2023-01-04T11:25:57.055Z,7.36
2023-01-04T11:28:33.567Z,7.49
2023-01-04T11:31:05.609Z,7.49
2023-01-04T11:33:28.444Z,7.57
2023-01-04T11:35:57.028Z,7.52
2023-01-04T11:38:25.298Z,7.59
2023-01-04T11:41:07.557Z,7.50
2023-01-04T11:43:32.863Z,7.56
2023-01-04T11:45:57.056Z,7.62
2023-01-04T11:48:19.830Z,7.69
2023-01-04T11:50:44.899Z,7.49
2023-01-04T11:53:31.310Z,7.43
2023-01-04T11:56:21.744Z,7.37
2023-01-04T11:59:03.418Z,7.35
2023-01-04T12:01:26.177Z,7.39
2023-01-04T12:03:49.117Z,7.53
2023-01-04T12:06:20.589Z,7.78
2023-01-04T12:08:43.296Z,7.81
2023-01-04T12:11:06.727Z,7.90
2023-01-04T12:13:31.481Z,8.06
2023-01-04T12:16:10.744Z,8.04
2023-01-04T12:18:38.434Z,8.14
2023-01-04T12:21:03.053Z,8.08
2023-01-04T12:23:25.707Z,7.84
2023-01-04T12:25:51.607Z,7.74
2023-01-04T12:28:34.917Z,7.56
2023-01-04T12:31:20.781Z,7.45
2023-01-04T12:33:45.925Z,7.78
2023-01-04T12:36:11.718Z,7.71
2023-01-04T12:38:52.987Z,7.91
2023-01-04T12:41:15.776Z,8.04
2023-01-04T12:43:44.699Z,8.26
2023-01-04T12:46:49.810Z,8.21
2023-01-04T12:49:27.994Z,7.84
2023-01-04T12:54:55.097Z,7.78
2023-01-04T12:57:17.829Z,7.81
2023-01-04T12:59:59.539Z,7.87
2023-01-04T13:02:34.663Z,7.73
2023-01-04T13:08:11.683Z,7.66
2023-01-04T13:10:49.028Z,7.74
2023-01-04T13:13:38.646Z,7.69
2023-01-04T13:16:10.757Z,8.01
2023-01-04T13:18:37.962Z,7.87
2023-01-04T13:21:04.034Z,7.84
2023-01-04T13:23:27.338Z,8.02
2023-01-04T13:25:50.424Z,7.98
2023-01-04T13:28:18.915Z,7.90
2023-01-04T13:30:41.403Z,7.88
2023-01-04T13:33:27.368Z,8.11
2023-01-04T13:36:02.827Z,8.05
2023-01-04T13:38:25.499Z,8.22
2023-01-04T13:40:49.607Z,8.16
2023-01-04T13:43:15.566Z,8.31
2023-01-04T13:46:02.107Z,8.43
2023-01-04T13:48:35.830Z,8.28
2023-01-04T13:51:14.129Z,8.28
2023-01-04T13:53:38.642Z,8.11
2023-01-04T13:56:04.849Z,7.99
2023-01-04T13:58:31.112Z,7.87
2023-01-04T14:01:23.347Z,7.73
2023-01-04T14:03:59.415Z,7.90
2023-01-04T14:06:45.443Z,7.97
2023-01-04T14:09:11.110Z,8.11
2023-01-04T14:12:08.720Z,7.90
2023-01-04T14:15:00.684Z,8.05
2023-01-04T14:17:48.247Z,8.18
2023-01-04T14:20:11.407Z,7.90
2023-01-04T14:22:37.783Z,7.78
2023-01-04T14:25:22.088Z,7.77
2023-01-04T14:27:44.810Z,7.78
2023-01-04T14:30:19.506Z,7.53
2023-01-04T14:32:42.406Z,7.23
2023-01-04T14:35:11.627Z,6.98
2023-01-04T14:37:35.384Z,6.83
2023-01-04T14:39:58.354Z,6.77
2023-01-04T14:42:27.328Z,6.66
2023-01-04T14:44:49.978Z,6.60
2023-01-04T14:47:12.894Z,6.46
2023-01-04T14:49:35.561Z,6.44
2023-01-04T14:52:00.858Z,6.46
2023-01-04T14:54:26.137Z,6.32
2023-01-04T14:56:48.957Z,6.29
2023-01-04T14:59:12.055Z,6.25
2023-01-04T15:01:36.375Z,6.18
2023-01-04T15:03:59.890Z,6.26
2023-01-04T15:06:22.815Z,6.11
2023-01-04T15:08:45.618Z,6.04
2023-01-04T15:11:10.055Z,6.19
2023-01-04T15:13:39.144Z,6.09
2023-01-04T15:16:02.384Z,5.88
2023-01-04T15:18:25.490Z,5.95
2023-01-04T15:20:48.231Z,5.92
2023-01-04T15:23:10.979Z,5.78
2023-01-04T15:25:33.639Z,5.67
2023-01-04T15:27:56.365Z,5.56
2023-01-04T15:30:19.211Z,5.46
2023-01-04T15:32:42.170Z,5.50
2023-01-04T15:35:05.671Z,5.43
2023-01-04T15:37:28.327Z,5.42
2023-01-04T15:39:54.235Z,5.48
2023-01-04T15:42:39.582Z,5.50
2023-01-04T15:45:02.266Z,5.51
2023-01-04T15:47:25.252Z,5.32
2023-01-04T15:49:47.924Z,5.33
2023-01-04T15:52:10.480Z,5.36
2023-01-04T15:54:33.060Z,5.33
2023-01-04T15:56:55.971Z,5.15
2023-01-04T15:59:19.218Z,5.15
2023-01-04T16:01:43.240Z,5.06
2023-01-04T16:04:07.041Z,5.25
2023-01-04T16:06:29.697Z,5.12
2023-01-04T16:08:53.077Z,5.06
2023-01-04T16:11:19.363Z,5.00
2023-01-04T16:13:42.930Z,5.06
2023-01-04T16:16:06.195Z,5.00
2023-01-04T16:18:32.334Z,4.96
2023-01-04T16:20:55.485Z,4.89
2023-01-04T16:23:18.112Z,4.95
2023-01-04T16:25:40.642Z,4.88
2023-01-04T16:28:03.293Z,4.87
2023-01-04T16:30:29.718Z,4.87
2023-01-04T16:32:52.715Z,4.85
2023-01-04T16:35:15.365Z,4.88
2023-01-04T16:37:38.694Z,4.88
2023-01-04T16:40:09.356Z,4.87
2023-01-04T16:42:32.809Z,4.84
2023-01-04T16:44:55.286Z,4.78
2023-01-04T16:47:18.041Z,4.68
2023-01-04T16:49:40.763Z,4.60
2023-01-04T16:52:03.821Z,4.54
2023-01-04T16:54:26.461Z,4.49
2023-01-04T16:56:49.466Z,4.40
2023-01-04T16:59:16.092Z,4.36
2023-01-04T17:01:46.430Z,4.28
2023-01-04T17:04:12.230Z,4.22
2023-01-04T17:06:40.246Z,4.14
2023-01-04T17:09:04.697Z,4.09
2023-01-04T17:14:13.683Z,3.98
2023-01-04T17:16:36.432Z,3.93
2023-01-04T17:18:59.165Z,3.91
2023-01-04T17:21:33.648Z,3.91
2023-01-04T17:23:58.525Z,3.92
2023-01-04T17:26:32.526Z,3.86
2023-01-04T17:28:56.970Z,3.93
2023-01-04T17:31:34.830Z,3.89
2023-01-04T17:33:57.858Z,3.82
2023-01-04T17:36:21.472Z,3.81
2023-01-04T17:38:45.538Z,3.79
2023-01-04T17:41:15.943Z,3.81
2023-01-04T17:43:39.729Z,3.75
2023-01-04T17:46:07.389Z,3.75
2023-01-04T17:48:30.251Z,3.71
2023-01-04T17:50:52.835Z,3.67
2023-01-04T17:53:15.613Z,3.64
2023-01-04T17:55:38.266Z,3.55
2023-01-04T17:58:03.291Z,3.61
2023-01-04T18:00:28.894Z,3.67
2023-01-04T18:02:51.637Z,3.67
2023-01-04T18:05:14.928Z,3.68
2023-01-04T18:07:38.010Z,3.74
2023-01-04T18:10:01.443Z,3.82
2023-01-04T18:12:24.530Z,3.92
2023-01-04T18:14:47.905Z,3.96
2023-01-04T18:17:13.005Z,3.99
2023-01-04T18:19:36.784Z,3.85
2023-01-04T18:22:01.155Z,3.81
2023-01-04T18:24:41.675Z,3.77
2023-01-04T18:27:25.023Z,3.78
2023-01-04T18:29:48.549Z,3.79
2023-01-04T18:32:11.396Z,3.84
2023-01-04T18:34:34.264Z,3.71
2023-01-04T18:36:56.956Z,3.65
2023-01-04T18:39:20.793Z,3.67
2023-01-04T18:41:45.804Z,3.61
2023-01-04T18:44:34.928Z,3.57
2023-01-04T18:46:52.727Z,3.53
2023-01-04T18:49:15.656Z,3.43
2023-01-04T18:51:38.481Z,3.41
2023-01-04T18:54:01.198Z,3.53
2023-01-04T18:56:24.316Z,3.47
2023-01-04T18:58:52.118Z,3.57
2023-01-04T19:01:16.742Z,3.67
2023-01-04T19:03:41.518Z,3.78
2023-01-04T19:06:09.341Z,3.73
2023-01-04T19:08:32.140Z,3.92
2023-01-04T19:10:55.489Z,3.74
2023-01-04T19:13:19.896Z,3.74
2023-01-04T19:15:47.576Z,3.54
2023-01-04T19:18:11.817Z,3.44
2023-01-04T19:20:35.291Z,3.43
2023-01-04T19:22:57.968Z,3.41
2023-01-04T19:25:26.314Z,3.40
2023-01-04T19:27:50.794Z,3.30
2023-01-04T19:30:13.929Z,3.33
2023-01-04T19:32:36.810Z,3.31
2023-01-04T19:34:59.425Z,3.44
2023-01-04T19:37:22.315Z,3.48
2023-01-04T19:39:44.985Z,3.53
2023-01-04T19:42:08.258Z,3.64
2023-01-04T19:44:31.303Z,3.68
2023-01-04T19:46:54.029Z,3.92
2023-01-04T19:49:18.040Z,4.17
2023-01-04T19:51:40.749Z,4.53
2023-01-04T19:54:04.838Z,4.95
2023-01-04T19:56:27.809Z,5.30
2023-01-04T19:58:51.192Z,5.54
2023-01-04T20:01:16.419Z,5.70
2023-01-04T20:03:39.421Z,5.84
2023-01-04T20:06:05.315Z,5.99
2023-01-04T20:08:28.191Z,6.16
2023-01-04T20:10:55.549Z,6.18
2023-01-04T20:13:18.409Z,6.26
2023-01-04T20:15:41.664Z,6.32
2023-01-04T20:18:10.020Z,6.33
2023-01-04T20:20:36.388Z,6.37
2023-01-04T20:22:59.304Z,6.42
2023-01-04T20:25:22.489Z,6.33
2023-01-04T20:27:45.174Z,6.46
2023-01-04T20:30:09.178Z,6.50
2023-01-04T20:32:31.930Z,6.53
2023-01-04T20:34:54.875Z,6.64
2023-01-04T20:37:18.026Z,6.69
2023-01-04T20:39:40.702Z,6.84
2023-01-04T20:42:22.157Z,6.92
2023-01-04T20:44:45.099Z,6.90
2023-01-04T20:47:07.939Z,6.95
2023-01-04T20:49:30.919Z,6.99
2023-01-04T20:51:53.760Z,7.09
2023-01-04T20:54:16.551Z,7.16
2023-01-04T20:56:40.426Z,7.18
2023-01-04T20:59:03.793Z,7.22
2023-01-04T21:01:26.610Z,7.33
2023-01-04T21:03:49.946Z,7.25
2023-01-04T21:06:15.544Z,7.26
2023-01-04T21:08:39.642Z,7.19
2023-01-04T21:11:02.293Z,7.26
2023-01-04T21:13:27.746Z,7.23
2023-01-04T21:15:50.430Z,7.23
2023-01-04T21:18:13.613Z,7.16
2023-01-04T21:20:43.584Z,7.11
2023-01-04T21:23:06.259Z,7.16
2023-01-04T21:25:29.105Z,7.12
2023-01-04T21:27:51.731Z,6.99
2023-01-04T21:30:14.608Z,7.08
2023-01-04T21:32:37.247Z,7.09
2023-01-04T21:35:00.114Z,7.11
2023-01-04T21:37:22.713Z,6.92
2023-01-04T21:39:45.331Z,6.87
2023-01-04T21:42:08.199Z,6.87
2023-01-04T21:44:31.499Z,6.85
2023-01-04T21:46:54.311Z,6.87
2023-01-04T21:49:17.113Z,6.95
2023-01-04T21:51:39.788Z,7.02
2023-01-04T21:54:02.406Z,7.01
2023-01-04T21:56:25.337Z,7.02
2023-01-04T21:58:48.362Z,6.97
2023-01-04T22:01:16.494Z,7.01
2023-01-04T22:03:39.232Z,7.01
2023-01-04T22:06:03.737Z,6.91
2023-01-04T22:08:26.448Z,6.94
2023-01-04T22:10:54.550Z,6.90
2023-01-04T22:13:19.736Z,6.91
2023-01-04T22:15:42.435Z,6.99
2023-01-04T22:18:05.510Z,7.02
2023-01-04T22:20:28.372Z,6.97
2023-01-04T22:22:50.967Z,6.95
2023-01-04T22:25:13.836Z,7.01
2023-01-04T22:27:36.722Z,6.99
2023-01-04T22:29:59.413Z,6.98
2023-01-04T22:32:22.020Z,6.85
2023-01-04T22:34:44.597Z,6.88
2023-01-04T22:37:07.135Z,6.81
2023-01-04T22:39:30.041Z,6.90
2023-01-04T22:41:52.707Z,6.85
2023-01-04T22:44:15.482Z,6.77
2023-01-04T22:46:38.161Z,6.76
2023-01-04T22:49:01.904Z,6.66
2023-01-04T22:51:27.693Z,6.69
2023-01-04T22:53:54.373Z,6.67
2023-01-04T22:56:20.841Z,6.71
2023-01-04T22:58:50.092Z,6.73
2023-01-04T23:01:15.486Z,6.77
2023-01-04T23:03:41.462Z,6.84
2023-01-04T23:06:12.204Z,6.88
2023-01-04T23:08:35.945Z,6.91
2023-01-04T23:11:04.921Z,7.01
2023-01-04T23:13:27.495Z,7.11
2023-01-04T23:15:50.155Z,7.04
2023-01-04T23:18:12.929Z,7.09
2023-01-04T23:20:35.550Z,7.16
2023-01-04T23:22:58.438Z,7.09
2023-01-04T23:25:21.111Z,7.15
2023-01-04T23:27:43.789Z,7.20
2023-01-04T23:30:06.807Z,7.28
2023-01-04T23:32:31.970Z,7.36
2023-01-04T23:34:54.627Z,7.37
2023-01-04T23:37:17.332Z,7.45
2023-01-04T23:39:40.083Z,7.40
2023-01-04T23:42:02.745Z,7.37
2023-01-04T23:44:27.813Z,7.39
2023-01-04T23:47:11.755Z,7.47
2023-01-04T23:49:36.468Z,7.53
2023-01-04T23:52:00.463Z,7.60
2023-01-04T23:54:23.748Z,7.55
2023-01-04T23:56:46.609Z,7.46
2023-01-04T23:59:09.469Z,7.45
